Dawson Township, Illinois
Current Conditions -  °F | °C
As of 6:59 PM on Monday 24 Nov 2014 (Local Time) from KBMI Reporting Station
Overcast Overcast  
Wind Chill: 17°   Ceiling: 1700
Heat Index: 30°   Visibility: 10mi
Dew Point: 25°   Wind: 22mph
Humidity: 80%   Direction: 260°W
Pressure: 29.81"   Gusts: 36mph
Location:  40.4429°N, 88.7467°W
Report Text: KBMI 250059Z 26019G31KT 10SM BKN017 OVC026 M01/M04 A2981 RMK AO2 BKN V SCT UPE59 P0000 PK WND 28028/0057
Loading
Personal Weather Stations






























Interactive Weather Map New forecast layout! Learn more

10-Day Weather Forecast

Advertisements
Track Severe Weather on mobile